sensor_id;sensor_type;location;lat;lon;timestamp;P1;durP1;ratioP1;P2;durP2;ratioP2
74753;SDS011;63271;53.340;-6.260;2023-05-10T06:02:47;6.28;;;1.27;;
74753;SDS011;63271;53.340;-6.260;2023-05-10T06:05:17;7.03;;;1.20;;
74753;SDS011;63271;53.340;-6.260;2023-05-10T06:07:43;6.97;;;1.33;;
74753;SDS011;63271;53.340;-6.260;2023-05-10T06:10:13;9.38;;;1.67;;
74753;SDS011;63271;53.340;-6.260;2023-05-10T06:12:41;8.48;;;1.63;;
74753;SDS011;63271;53.340;-6.260;2023-05-10T06:15:09;7.30;;;1.48;;
74753;SDS011;63271;53.340;-6.260;2023-05-10T06:17:35;9.18;;;1.48;;
74753;SDS011;63271;53.340;-6.260;2023-05-10T06:20:03;7.50;;;1.55;;
74753;SDS011;63271;53.340;-6.260;2023-05-10T06:22:30;9.15;;;1.63;;
74753;SDS011;63271;53.340;-6.260;2023-05-10T06:24:58;13.90;;;1.90;;
74753;SDS011;63271;53.340;-6.260;2023-05-10T06:27:24;9.52;;;1.48;;
74753;SDS011;63271;53.340;-6.260;2023-05-10T06:29:51;7.72;;;1.52;;
74753;SDS011;63271;53.340;-6.260;2023-05-10T06:32:20;14.70;;;1.58;;
74753;SDS011;63271;53.340;-6.260;2023-05-10T06:34:48;5.78;;;1.30;;
74753;SDS011;63271;53.340;-6.260;2023-05-10T06:37:16;7.22;;;1.10;;
74753;SDS011;63271;53.340;-6.260;2023-05-10T06:39:44;7.05;;;1.30;;
74753;SDS011;63271;53.340;-6.260;2023-05-10T06:42:11;10.02;;;2.63;;
74753;SDS011;63271;53.340;-6.260;2023-05-10T06:44:40;7.13;;;1.05;;
74753;SDS011;63271;53.340;-6.260;2023-05-10T06:47:08;4.07;;;1.23;;
74753;SDS011;63271;53.340;-6.260;2023-05-10T06:49:34;10.27;;;1.75;;
74753;SDS011;63271;53.340;-6.260;2023-05-10T06:51:59;4.70;;;0.95;;
74753;SDS011;63271;53.340;-6.260;2023-05-10T06:54:27;12.43;;;1.20;;
74753;SDS011;63271;53.340;-6.260;2023-05-10T06:56:52;6.28;;;1.55;;
74753;SDS011;63271;53.340;-6.260;2023-05-10T06:59:20;4.68;;;1.10;;
74753;SDS011;63271;53.340;-6.260;2023-05-10T07:01:46;7.22;;;1.40;;
74753;SDS011;63271;53.340;-6.260;2023-05-10T07:04:15;3.65;;;0.75;;
74753;SDS011;63271;53.340;-6.260;2023-05-10T07:06:40;5.43;;;1.10;;
74753;SDS011;63271;53.340;-6.260;2023-05-10T07:09:08;7.10;;;1.50;;
74753;SDS011;63271;53.340;-6.260;2023-05-10T07:11:34;12.30;;;1.60;;
74753;SDS011;63271;53.340;-6.260;2023-05-10T07:13:59;7.03;;;1.92;;
74753;SDS011;63271;53.340;-6.260;2023-05-10T07:16:25;7.03;;;1.23;;
74753;SDS011;63271;53.340;-6.260;2023-05-10T07:18:50;5.03;;;1.08;;
74753;SDS011;63271;53.340;-6.260;2023-05-10T07:21:16;9.30;;;1.50;;
74753;SDS011;63271;53.340;-6.260;2023-05-10T07:23:43;11.40;;;1.40;;
74753;SDS011;63271;53.340;-6.260;2023-05-10T07:26:09;6.57;;;1.73;;
74753;SDS011;63271;53.340;-6.260;2023-05-10T07:28:37;9.68;;;1.77;;
74753;SDS011;63271;53.340;-6.260;2023-05-10T07:31:04;6.53;;;1.38;;
74753;SDS011;63271;53.340;-6.260;2023-05-10T07:33:30;5.97;;;0.95;;
74753;SDS011;63271;53.340;-6.260;2023-05-10T07:35:55;4.07;;;1.30;;
74753;SDS011;63271;53.340;-6.260;2023-05-10T07:38:23;4.00;;;0.80;;
74753;SDS011;63271;53.340;-6.260;2023-05-10T07:40:49;4.30;;;0.88;;
74753;SDS011;63271;53.340;-6.260;2023-05-10T07:43:14;2.28;;;0.95;;
74753;SDS011;63271;53.340;-6.260;2023-05-10T07:45:42;5.25;;;1.02;;
74753;SDS011;63271;53.340;-6.260;2023-05-10T07:48:07;3.70;;;0.88;;
74753;SDS011;63271;53.340;-6.260;2023-05-10T07:50:32;3.95;;;0.90;;
74753;SDS011;63271;53.340;-6.260;2023-05-10T07:52:58;5.78;;;1.02;;
74753;SDS011;63271;53.340;-6.260;2023-05-10T07:55:24;9.80;;;1.13;;
74753;SDS011;63271;53.340;-6.260;2023-05-10T07:57:49;4.63;;;1.00;;
74753;SDS011;63271;53.340;-6.260;2023-05-10T08:00:19;2.97;;;0.73;;
74753;SDS011;63271;53.340;-6.260;2023-05-10T08:02:46;2.83;;;0.70;;
74753;SDS011;63271;53.340;-6.260;2023-05-10T08:05:14;4.18;;;0.98;;
74753;SDS011;63271;53.340;-6.260;2023-05-10T08:07:40;5.22;;;0.80;;
74753;SDS011;63271;53.340;-6.260;2023-05-10T08:10:05;4.65;;;0.75;;
74753;SDS011;63271;53.340;-6.260;2023-05-10T08:12:34;4.28;;;0.63;;
74753;SDS011;63271;53.340;-6.260;2023-05-10T08:14:59;5.15;;;0.90;;
74753;SDS011;63271;53.340;-6.260;2023-05-10T08:17:27;8.80;;;1.48;;
74753;SDS011;63271;53.340;-6.260;2023-05-10T08:19:52;4.60;;;1.20;;
74753;SDS011;63271;53.340;-6.260;2023-05-10T08:22:18;4.45;;;0.88;;
74753;SDS011;63271;53.340;-6.260;2023-05-10T08:24:43;5.18;;;0.80;;
74753;SDS011;63271;53.340;-6.260;2023-05-10T08:27:09;3.30;;;0.90;;
74753;SDS011;63271;53.340;-6.260;2023-05-10T08:29:34;5.05;;;1.10;;
74753;SDS011;63271;53.340;-6.260;2023-05-10T08:32:00;5.80;;;1.10;;
74753;SDS011;63271;53.340;-6.260;2023-05-10T08:34:26;2.03;;;0.82;;
74753;SDS011;63271;53.340;-6.260;2023-05-10T08:36:54;2.97;;;1.15;;
74753;SDS011;63271;53.340;-6.260;2023-05-10T08:39:22;4.72;;;0.77;;
74753;SDS011;63271;53.340;-6.260;2023-05-10T08:41:48;5.07;;;0.90;;
74753;SDS011;63271;53.340;-6.260;2023-05-10T08:44:16;6.47;;;1.10;;
74753;SDS011;63271;53.340;-6.260;2023-05-10T08:46:43;3.38;;;0.68;;
74753;SDS011;63271;53.340;-6.260;2023-05-10T08:49:16;5.82;;;0.90;;
74753;SDS011;63271;53.340;-6.260;2023-05-10T08:51:47;4.25;;;1.15;;
74753;SDS011;63271;53.340;-6.260;2023-05-10T08:54:16;9.10;;;1.30;;
74753;SDS011;63271;53.340;-6.260;2023-05-10T08:56:44;8.93;;;1.33;;
74753;SDS011;63271;53.340;-6.260;2023-05-10T08:59:11;5.18;;;1.13;;
74753;SDS011;63271;53.340;-6.260;2023-05-10T09:01:38;6.00;;;1.20;;
74753;SDS011;63271;53.340;-6.260;2023-05-10T09:04:05;3.83;;;0.80;;
74753;SDS011;63271;53.340;-6.260;2023-05-10T09:06:33;4.93;;;0.98;;
74753;SDS011;63271;53.340;-6.260;2023-05-10T09:09:01;1.58;;;0.65;;
74753;SDS011;63271;53.340;-6.260;2023-05-10T09:11:28;3.42;;;0.77;;
74753;SDS011;63271;53.340;-6.260;2023-05-10T09:13:57;4.18;;;0.80;;
74753;SDS011;63271;53.340;-6.260;2023-05-10T09:16:23;3.25;;;1.00;;
74753;SDS011;63271;53.340;-6.260;2023-05-10T09:18:49;5.68;;;0.80;;
74753;SDS011;63271;53.340;-6.260;2023-05-10T09:21:14;5.40;;;1.50;;
74753;SDS011;63271;53.340;-6.260;2023-05-10T09:23:45;2.95;;;0.73;;
74753;SDS011;63271;53.340;-6.260;2023-05-10T09:26:11;6.78;;;1.40;;
74753;SDS011;63271;53.340;-6.260;2023-05-10T09:28:53;7.25;;;1.02;;
74753;SDS011;63271;53.340;-6.260;2023-05-10T09:31:24;3.08;;;1.08;;
74753;SDS011;63271;53.340;-6.260;2023-05-10T09:34:18;5.25;;;1.05;;
74753;SDS011;63271;53.340;-6.260;2023-05-10T09:36:54;7.72;;;0.90;;
74753;SDS011;63271;53.340;-6.260;2023-05-10T09:39:29;3.10;;;0.68;;
74753;SDS011;63271;53.340;-6.260;2023-05-10T09:41:56;6.03;;;1.23;;
74753;SDS011;63271;53.340;-6.260;2023-05-10T09:44:22;9.50;;;2.42;;
74753;SDS011;63271;53.340;-6.260;2023-05-10T09:46:48;5.78;;;2.35;;
74753;SDS011;63271;53.340;-6.260;2023-05-10T09:49:18;4.30;;;1.83;;
74753;SDS011;63271;53.340;-6.260;2023-05-10T09:51:44;8.05;;;2.33;;
74753;SDS011;63271;53.340;-6.260;2023-05-10T09:54:14;7.85;;;2.50;;
74753;SDS011;63271;53.340;-6.260;2023-05-10T09:56:42;7.30;;;2.10;;
74753;SDS011;63271;53.340;-6.260;2023-05-10T09:59:11;10.88;;;2.75;;
74753;SDS011;63271;53.340;-6.260;2023-05-10T10:01:37;7.65;;;1.98;;
74753;SDS011;63271;53.340;-6.260;2023-05-10T10:04:04;6.88;;;2.45;;
74753;SDS011;63271;53.340;-6.260;2023-05-10T10:06:36;7.05;;;2.28;;
74753;SDS011;63271;53.340;-6.260;2023-05-10T10:09:03;12.55;;;4.72;;
74753;SDS011;63271;53.340;-6.260;2023-05-10T10:11:28;7.70;;;3.03;;
74753;SDS011;63271;53.340;-6.260;2023-05-10T10:13:54;10.63;;;3.60;;
74753;SDS011;63271;53.340;-6.260;2023-05-10T10:16:20;8.52;;;3.47;;
74753;SDS011;63271;53.340;-6.260;2023-05-10T10:18:45;4.68;;;2.13;;
74753;SDS011;63271;53.340;-6.260;2023-05-10T10:21:13;2.78;;;1.00;;
74753;SDS011;63271;53.340;-6.260;2023-05-10T10:23:38;4.22;;;1.50;;
74753;SDS011;63271;53.340;-6.260;2023-05-10T10:26:06;4.78;;;1.20;;
74753;SDS011;63271;53.340;-6.260;2023-05-10T10:28:39;4.65;;;1.70;;
74753;SDS011;63271;53.340;-6.260;2023-05-10T10:31:20;8.05;;;1.67;;
74753;SDS011;63271;53.340;-6.260;2023-05-10T10:34:07;3.40;;;1.35;;
74753;SDS011;63271;53.340;-6.260;2023-05-10T10:36:44;5.53;;;2.63;;
74753;SDS011;63271;53.340;-6.260;2023-05-10T10:39:13;1.95;;;1.10;;
74753;SDS011;63271;53.340;-6.260;2023-05-10T10:42:00;3.25;;;1.30;;
74753;SDS011;63271;53.340;-6.260;2023-05-10T10:52:12;8.02;;;2.22;;
74753;SDS011;63271;53.340;-6.260;2023-05-10T10:54:40;9.45;;;3.58;;
74753;SDS011;63271;53.340;-6.260;2023-05-10T10:57:11;7.63;;;3.20;;
74753;SDS011;63271;53.340;-6.260;2023-05-10T10:59:42;8.88;;;2.13;;
74753;SDS011;63271;53.340;-6.260;2023-05-10T11:04:59;2.97;;;1.33;;
74753;SDS011;63271;53.340;-6.260;2023-05-10T11:07:25;5.18;;;2.17;;
74753;SDS011;63271;53.340;-6.260;2023-05-10T11:09:51;9.38;;;3.20;;
74753;SDS011;63271;53.340;-6.260;2023-05-10T11:12:16;5.25;;;1.00;;
74753;SDS011;63271;53.340;-6.260;2023-05-10T11:14:42;1.83;;;0.80;;
74753;SDS011;63271;53.340;-6.260;2023-05-10T11:17:22;2.30;;;0.70;;
74753;SDS011;63271;53.340;-6.260;2023-05-10T11:22:51;3.55;;;0.77;;
74753;SDS011;63271;53.340;-6.260;2023-05-10T11:25:17;3.50;;;1.45;;
74753;SDS011;63271;53.340;-6.260;2023-05-10T11:27:46;4.32;;;1.00;;
74753;SDS011;63271;53.340;-6.260;2023-05-10T11:30:14;2.97;;;0.68;;
74753;SDS011;63271;53.340;-6.260;2023-05-10T11:32:42;1.70;;;0.68;;
74753;SDS011;63271;53.340;-6.260;2023-05-10T11:35:09;3.50;;;0.95;;
74753;SDS011;63271;53.340;-6.260;2023-05-10T11:37:38;3.95;;;1.05;;
74753;SDS011;63271;53.340;-6.260;2023-05-10T11:40:08;7.72;;;2.13;;
74753;SDS011;63271;53.340;-6.260;2023-05-10T11:42:37;6.93;;;2.20;;
74753;SDS011;63271;53.340;-6.260;2023-05-10T11:45:03;11.57;;;4.50;;
74753;SDS011;63271;53.340;-6.260;2023-05-10T11:47:29;13.32;;;3.50;;
74753;SDS011;63271;53.340;-6.260;2023-05-10T11:49:56;14.15;;;5.18;;
74753;SDS011;63271;53.340;-6.260;2023-05-10T11:52:25;9.05;;;3.20;;
74753;SDS011;63271;53.340;-6.260;2023-05-10T11:54:50;6.68;;;2.50;;
74753;SDS011;63271;53.340;-6.260;2023-05-10T11:57:19;6.65;;;2.97;;
74753;SDS011;63271;53.340;-6.260;2023-05-10T11:59:45;10.82;;;4.32;;
74753;SDS011;63271;53.340;-6.260;2023-05-10T12:02:15;10.68;;;4.93;;
74753;SDS011;63271;53.340;-6.260;2023-05-10T12:04:40;3.90;;;1.73;;
74753;SDS011;63271;53.340;-6.260;2023-05-10T12:07:06;5.10;;;1.50;;
74753;SDS011;63271;53.340;-6.260;2023-05-10T12:09:32;5.35;;;2.55;;
74753;SDS011;63271;53.340;-6.260;2023-05-10T12:11:57;5.65;;;1.30;;
74753;SDS011;63271;53.340;-6.260;2023-05-10T12:14:25;4.65;;;2.30;;
74753;SDS011;63271;53.340;-6.260;2023-05-10T12:16:51;7.80;;;3.33;;
74753;SDS011;63271;53.340;-6.260;2023-05-10T12:19:19;7.82;;;2.55;;
74753;SDS011;63271;53.340;-6.260;2023-05-10T12:21:47;7.80;;;2.50;;
74753;SDS011;63271;53.340;-6.260;2023-05-10T12:24:13;5.53;;;2.40;;
74753;SDS011;63271;53.340;-6.260;2023-05-10T12:26:42;6.07;;;2.38;;
74753;SDS011;63271;53.340;-6.260;2023-05-10T12:29:15;9.98;;;2.40;;
74753;SDS011;63271;53.340;-6.260;2023-05-10T12:34:31;4.40;;;1.58;;
74753;SDS011;63271;53.340;-6.260;2023-05-10T12:37:01;5.72;;;2.20;;
74753;SDS011;63271;53.340;-6.260;2023-05-10T12:39:42;10.20;;;2.42;;
74753;SDS011;63271;53.340;-6.260;2023-05-10T12:42:09;11.10;;;3.33;;
74753;SDS011;63271;53.340;-6.260;2023-05-10T12:44:35;7.80;;;2.60;;
74753;SDS011;63271;53.340;-6.260;2023-05-10T12:47:00;8.20;;;2.90;;
74753;SDS011;63271;53.340;-6.260;2023-05-10T12:49:26;7.90;;;2.92;;
74753;SDS011;63271;53.340;-6.260;2023-05-10T12:51:51;7.32;;;2.28;;
74753;SDS011;63271;53.340;-6.260;2023-05-10T12:54:16;7.75;;;3.50;;
74753;SDS011;63271;53.340;-6.260;2023-05-10T12:56:42;9.90;;;3.10;;
74753;SDS011;63271;53.340;-6.260;2023-05-10T12:59:10;8.75;;;2.80;;
74753;SDS011;63271;53.340;-6.260;2023-05-10T13:01:36;7.22;;;2.20;;
74753;SDS011;63271;53.340;-6.260;2023-05-10T13:04:03;4.40;;;2.08;;
74753;SDS011;63271;53.340;-6.260;2023-05-10T13:06:29;7.05;;;2.65;;
74753;SDS011;63271;53.340;-6.260;2023-05-10T13:08:58;3.42;;;1.70;;
74753;SDS011;63271;53.340;-6.260;2023-05-10T13:11:23;6.00;;;2.75;;
74753;SDS011;63271;53.340;-6.260;2023-05-10T13:13:51;6.38;;;1.85;;
74753;SDS011;63271;53.340;-6.260;2023-05-10T13:16:17;11.07;;;4.47;;
74753;SDS011;63271;53.340;-6.260;2023-05-10T13:18:44;7.47;;;3.25;;
74753;SDS011;63271;53.340;-6.260;2023-05-10T13:21:10;4.20;;;1.60;;
74753;SDS011;63271;53.340;-6.260;2023-05-10T13:23:38;6.82;;;2.08;;
74753;SDS011;63271;53.340;-6.260;2023-05-10T13:26:08;7.80;;;3.22;;
74753;SDS011;63271;53.340;-6.260;2023-05-10T13:28:34;8.07;;;1.83;;
74753;SDS011;63271;53.340;-6.260;2023-05-10T13:30:59;7.13;;;2.65;;
74753;SDS011;63271;53.340;-6.260;2023-05-10T13:33:25;5.00;;;1.77;;
74753;SDS011;63271;53.340;-6.260;2023-05-10T13:35:50;9.50;;;2.95;;
74753;SDS011;63271;53.340;-6.260;2023-05-10T13:38:15;3.45;;;1.65;;
74753;SDS011;63271;53.340;-6.260;2023-05-10T13:40:45;4.10;;;1.40;;
74753;SDS011;63271;53.340;-6.260;2023-05-10T13:43:11;8.38;;;1.00;;
74753;SDS011;63271;53.340;-6.260;2023-05-10T13:45:39;4.07;;;1.10;;
74753;SDS011;63271;53.340;-6.260;2023-05-10T13:48:04;4.55;;;1.13;;
74753;SDS011;63271;53.340;-6.260;2023-05-10T13:50:30;1.55;;;0.90;;
74753;SDS011;63271;53.340;-6.260;2023-05-10T13:52:56;2.75;;;1.10;;
74753;SDS011;63271;53.340;-6.260;2023-05-10T13:55:24;4.50;;;1.40;;
74753;SDS011;63271;53.340;-6.260;2023-05-10T13:57:52;4.07;;;1.00;;
74753;SDS011;63271;53.340;-6.260;2023-05-10T14:00:17;5.15;;;1.00;;
74753;SDS011;63271;53.340;-6.260;2023-05-10T14:02:46;3.22;;;0.80;;
74753;SDS011;63271;53.340;-6.260;2023-05-10T14:05:11;4.80;;;1.65;;
74753;SDS011;63271;53.340;-6.260;2023-05-10T14:07:37;4.57;;;0.98;;
74753;SDS011;63271;53.340;-6.260;2023-05-10T14:10:05;6.07;;;1.35;;
74753;SDS011;63271;53.340;-6.260;2023-05-10T14:12:31;2.80;;;0.95;;
74753;SDS011;63271;53.340;-6.260;2023-05-10T14:14:56;5.10;;;1.55;;
74753;SDS011;63271;53.340;-6.260;2023-05-10T14:17:23;6.20;;;1.20;;
74753;SDS011;63271;53.340;-6.260;2023-05-10T14:19:48;3.92;;;0.75;;
74753;SDS011;63271;53.340;-6.260;2023-05-10T14:22:14;1.05;;;0.38;;
74753;SDS011;63271;53.340;-6.260;2023-05-10T14:24:39;2.83;;;0.90;;
74753;SDS011;63271;53.340;-6.260;2023-05-10T14:27:08;1.45;;;0.70;;
74753;SDS011;63271;53.340;-6.260;2023-05-10T14:29:36;3.70;;;0.77;;
74753;SDS011;63271;53.340;-6.260;2023-05-10T14:32:02;4.10;;;1.25;;
74753;SDS011;63271;53.340;-6.260;2023-05-10T14:34:28;2.33;;;1.02;;
74753;SDS011;63271;53.340;-6.260;2023-05-10T14:36:56;4.82;;;1.20;;
74753;SDS011;63271;53.340;-6.260;2023-05-10T14:39:21;8.75;;;1.42;;
74753;SDS011;63271;53.340;-6.260;2023-05-10T14:41:47;5.40;;;1.25;;
74753;SDS011;63271;53.340;-6.260;2023-05-10T14:44:17;3.55;;;0.95;;
74753;SDS011;63271;53.340;-6.260;2023-05-10T14:46:51;6.25;;;1.48;;
74753;SDS011;63271;53.340;-6.260;2023-05-10T14:49:16;4.78;;;0.90;;
74753;SDS011;63271;53.340;-6.260;2023-05-10T14:51:42;2.00;;;0.70;;
74753;SDS011;63271;53.340;-6.260;2023-05-10T14:54:07;3.95;;;1.80;;
74753;SDS011;63271;53.340;-6.260;2023-05-10T14:56:33;1.58;;;1.00;;
74753;SDS011;63271;53.340;-6.260;2023-05-10T14:58:58;5.20;;;0.70;;
74753;SDS011;63271;53.340;-6.260;2023-05-10T15:01:25;6.45;;;1.30;;
74753;SDS011;63271;53.340;-6.260;2023-05-10T15:03:50;3.75;;;1.15;;
74753;SDS011;63271;53.340;-6.260;2023-05-10T15:06:16;4.97;;;1.40;;
74753;SDS011;63271;53.340;-6.260;2023-05-10T15:08:43;3.28;;;1.25;;
74753;SDS011;63271;53.340;-6.260;2023-05-10T15:11:09;6.45;;;1.65;;
74753;SDS011;63271;53.340;-6.260;2023-05-10T15:13:34;5.75;;;0.70;;
74753;SDS011;63271;53.340;-6.260;2023-05-10T15:16:00;3.95;;;0.98;;
74753;SDS011;63271;53.340;-6.260;2023-05-10T15:18:26;3.08;;;1.13;;
74753;SDS011;63271;53.340;-6.260;2023-05-10T15:20:51;4.55;;;0.90;;
74753;SDS011;63271;53.340;-6.260;2023-05-10T15:23:16;1.65;;;0.70;;
74753;SDS011;63271;53.340;-6.260;2023-05-10T15:25:42;2.03;;;0.80;;
74753;SDS011;63271;53.340;-6.260;2023-05-10T15:28:08;1.40;;;0.68;;
74753;SDS011;63271;53.340;-6.260;2023-05-10T15:30:33;6.35;;;1.50;;
74753;SDS011;63271;53.340;-6.260;2023-05-10T15:33:01;9.10;;;1.45;;
74753;SDS011;63271;53.340;-6.260;2023-05-10T15:35:29;4.40;;;1.10;;
74753;SDS011;63271;53.340;-6.260;2023-05-10T15:37:55;1.90;;;0.80;;
74753;SDS011;63271;53.340;-6.260;2023-05-10T15:40:25;7.35;;;0.85;;
74753;SDS011;63271;53.340;-6.260;2023-05-10T15:42:50;6.60;;;1.58;;
74753;SDS011;63271;53.340;-6.260;2023-05-10T15:45:16;2.38;;;0.98;;
74753;SDS011;63271;53.340;-6.260;2023-05-10T15:47:43;4.22;;;0.88;;
74753;SDS011;63271;53.340;-6.260;2023-05-10T15:50:09;2.85;;;0.80;;
74753;SDS011;63271;53.340;-6.260;2023-05-10T15:52:35;6.55;;;1.20;;
74753;SDS011;63271;53.340;-6.260;2023-05-10T15:55:01;3.65;;;1.17;;
74753;SDS011;63271;53.340;-6.260;2023-05-10T15:57:26;5.53;;;1.27;;
74753;SDS011;63271;53.340;-6.260;2023-05-10T15:59:52;3.42;;;1.00;;
74753;SDS011;63271;53.340;-6.260;2023-05-10T16:02:17;6.53;;;1.40;;
74753;SDS011;63271;53.340;-6.260;2023-05-10T16:04:43;5.03;;;1.67;;
74753;SDS011;63271;53.340;-6.260;2023-05-10T16:07:08;5.22;;;1.67;;
74753;SDS011;63271;53.340;-6.260;2023-05-10T16:09:38;3.95;;;1.42;;
74753;SDS011;63271;53.340;-6.260;2023-05-10T16:12:04;9.43;;;1.13;;
74753;SDS011;63271;53.340;-6.260;2023-05-10T16:14:29;5.18;;;1.40;;
74753;SDS011;63271;53.340;-6.260;2023-05-10T16:16:57;5.75;;;1.48;;
74753;SDS011;63271;53.340;-6.260;2023-05-10T16:19:25;7.45;;;1.52;;
74753;SDS011;63271;53.340;-6.260;2023-05-10T16:21:53;5.97;;;1.45;;
74753;SDS011;63271;53.340;-6.260;2023-05-10T16:24:19;7.75;;;1.42;;
74753;SDS011;63271;53.340;-6.260;2023-05-10T16:26:46;5.07;;;1.38;;
74753;SDS011;63271;53.340;-6.260;2023-05-10T16:29:16;11.73;;;1.95;;
74753;SDS011;63271;53.340;-6.260;2023-05-10T16:31:42;5.25;;;1.40;;
74753;SDS011;63271;53.340;-6.260;2023-05-10T16:34:07;7.50;;;1.63;;
74753;SDS011;63271;53.340;-6.260;2023-05-10T16:36:35;10.15;;;1.92;;
74753;SDS011;63271;53.340;-6.260;2023-05-10T16:39:04;3.38;;;1.17;;
74753;SDS011;63271;53.340;-6.260;2023-05-10T16:41:32;5.30;;;1.10;;
74753;SDS011;63271;53.340;-6.260;2023-05-10T16:43:58;7.55;;;1.48;;
74753;SDS011;63271;53.340;-6.260;2023-05-10T16:46:26;4.40;;;1.15;;
74753;SDS011;63271;53.340;-6.260;2023-05-10T16:48:51;4.68;;;1.17;;
74753;SDS011;63271;53.340;-6.260;2023-05-10T16:51:17;8.70;;;1.52;;
74753;SDS011;63271;53.340;-6.260;2023-05-10T16:53:42;5.03;;;1.20;;
74753;SDS011;63271;53.340;-6.260;2023-05-10T16:56:10;5.45;;;1.50;;
74753;SDS011;63271;53.340;-6.260;2023-05-10T16:58:38;6.00;;;1.70;;
74753;SDS011;63271;53.340;-6.260;2023-05-10T17:01:03;10.52;;;2.35;;
74753;SDS011;63271;53.340;-6.260;2023-05-10T17:03:31;6.13;;;0.95;;
74753;SDS011;63271;53.340;-6.260;2023-05-10T17:05:57;11.80;;;2.72;;
74753;SDS011;63271;53.340;-6.260;2023-05-10T17:08:25;8.98;;;1.30;;
74753;SDS011;63271;53.340;-6.260;2023-05-10T17:10:50;9.00;;;1.30;;
74753;SDS011;63271;53.340;-6.260;2023-05-10T17:13:16;7.45;;;1.50;;
74753;SDS011;63271;53.340;-6.260;2023-05-10T17:15:44;10.88;;;1.40;;
74753;SDS011;63271;53.340;-6.260;2023-05-10T17:18:10;3.53;;;1.35;;
74753;SDS011;63271;53.340;-6.260;2023-05-10T17:20:38;9.30;;;1.63;;
74753;SDS011;63271;53.340;-6.260;2023-05-10T17:23:03;11.57;;;1.42;;
74753;SDS011;63271;53.340;-6.260;2023-05-10T17:25:28;6.15;;;1.30;;
74753;SDS011;63271;53.340;-6.260;2023-05-10T17:27:54;7.57;;;1.60;;
74753;SDS011;63271;53.340;-6.260;2023-05-10T17:30:19;5.70;;;1.38;;
74753;SDS011;63271;53.340;-6.260;2023-05-10T17:32:52;9.68;;;1.77;;
74753;SDS011;63271;53.340;-6.260;2023-05-10T17:35:19;11.40;;;2.50;;
74753;SDS011;63271;53.340;-6.260;2023-05-10T17:37:47;9.32;;;2.80;;
74753;SDS011;63271;53.340;-6.260;2023-05-10T17:40:13;5.65;;;1.83;;
74753;SDS011;63271;53.340;-6.260;2023-05-10T17:42:39;9.23;;;1.65;;
74753;SDS011;63271;53.340;-6.260;2023-05-10T17:45:06;7.07;;;1.52;;
74753;SDS011;63271;53.340;-6.260;2023-05-10T17:47:32;8.55;;;1.45;;
74753;SDS011;63271;53.340;-6.260;2023-05-10T17:49:58;3.95;;;1.25;;
74753;SDS011;63271;53.340;-6.260;2023-05-10T17:52:25;5.65;;;1.15;;
74753;SDS011;63271;53.340;-6.260;2023-05-10T17:54:52;7.13;;;1.20;;
74753;SDS011;63271;53.340;-6.260;2023-05-10T17:57:17;6.20;;;1.30;;
74753;SDS011;63271;53.340;-6.260;2023-05-10T17:59:48;4.78;;;1.15;;
74753;SDS011;63271;53.340;-6.260;2023-05-10T18:02:16;5.13;;;1.00;;
74753;SDS011;63271;53.340;-6.260;2023-05-10T18:04:46;3.13;;;1.20;;
74753;SDS011;63271;53.340;-6.260;2023-05-10T18:07:15;6.03;;;1.30;;
74753;SDS011;63271;53.340;-6.260;2023-05-10T18:09:41;4.82;;;1.50;;
74753;SDS011;63271;53.340;-6.260;2023-05-10T18:12:06;5.63;;;1.77;;
74753;SDS011;63271;53.340;-6.260;2023-05-10T18:14:34;3.35;;;1.40;;
74753;SDS011;63271;53.340;-6.260;2023-05-10T18:17:00;4.03;;;1.25;;
74753;SDS011;63271;53.340;-6.260;2023-05-10T18:19:27;2.85;;;1.05;;
74753;SDS011;63271;53.340;-6.260;2023-05-10T18:21:53;5.20;;;1.65;;
74753;SDS011;63271;53.340;-6.260;2023-05-10T18:24:20;4.68;;;1.10;;
74753;SDS011;63271;53.340;-6.260;2023-05-10T18:26:46;6.95;;;1.50;;
74753;SDS011;63271;53.340;-6.260;2023-05-10T18:29:12;7.60;;;2.17;;
74753;SDS011;63271;53.340;-6.260;2023-05-10T18:31:40;5.68;;;1.92;;
74753;SDS011;63271;53.340;-6.260;2023-05-10T18:34:06;5.78;;;1.58;;
74753;SDS011;63271;53.340;-6.260;2023-05-10T18:36:31;5.95;;;2.55;;
74753;SDS011;63271;53.340;-6.260;2023-05-10T18:38:59;3.17;;;1.30;;
74753;SDS011;63271;53.340;-6.260;2023-05-10T18:41:24;7.15;;;1.60;;
74753;SDS011;63271;53.340;-6.260;2023-05-10T18:43:52;7.05;;;1.17;;
74753;SDS011;63271;53.340;-6.260;2023-05-10T18:46:20;3.85;;;1.15;;
74753;SDS011;63271;53.340;-6.260;2023-05-10T18:48:46;6.40;;;2.40;;
74753;SDS011;63271;53.340;-6.260;2023-05-10T18:51:14;2.42;;;1.38;;
74753;SDS011;63271;53.340;-6.260;2023-05-10T18:53:39;8.32;;;1.83;;
74753;SDS011;63271;53.340;-6.260;2023-05-10T18:56:05;5.90;;;1.90;;
74753;SDS011;63271;53.340;-6.260;2023-05-10T18:58:31;6.15;;;1.52;;
74753;SDS011;63271;53.340;-6.260;2023-05-10T19:00:57;6.22;;;2.05;;
